Terminal Aerodrome Forecast
Issued by NWS Cleveland, OH

Home | Current Version | Previous Version | Graphics & Text | Print | Product List | Glossary On
Versions: 1 2 3 4 5 6 7 8 9 10 11 12 13 14 15 16 17 18 19 20 21 22 23 24 25
000
FTUS41 KCLE 160843 AAB
TAFCLE
TAF AMD
KCLE 160843Z 1609/1712 23012KT 6SM -SN SCT025 OVC040
      TEMPO 1609/1613 2SM -SHSN OVC025
     FM161400 24012G18KT P6SM VCSH OVC035
     FM162000 22009KT P6SM SCT050 BKN100
     FM170300 10005KT P6SM SCT060 BKN200=

USA.gov is the U.S. government's official web portal to all federal, state and local government web resources and services.